Hoppa till innehåll

METAR väder och rapporter - ESMS

Nedan listas information från vald flygplats. Andra METARs finns längre ned på sidan. Kontakta oss om någon saknas eller skriv in egen ICAO-kod.

Coded METAR: 2023/02/02 08:20 ESMS 020820Z 32011KT 9999 FEW018 01/M02 Q1011

Weather Report @ ESMS

Issued: 2nd Feb 2023 at 09:20 CET

Wind: moderate breeze from the Northwest (320 degrees) at 11 knots (13 mph, 20 kph, 6 mps, Force 4)
Visibility: 10km or more
Cloud: a few clouds at 1800 feet
Temperature: 34F / 1C
Dewpoint: 28F / -2C
Humidity: 80%
Pressure: 1011 hPa

Coded TAF: 2023/02/02 09:15 TAF ESMS 020808Z 0209/0309 32012KT 9999 BKN025 BECMG 0217/0219 VRB03KT BECMG 0302/0304 18012KT 4000 -RADZ BR BKN008 TEMPO 0304/0309 18015G25KT 1500 RASN BKN002

Weather Forecast @ ESMS

Issued: 2nd Feb 2023 at 10:15 CET

Valid : 2nd Feb 10:00 until 3rd Feb 10:00 CET

10:00 CET
Wind: moderate breeze from the Northwest (320 degrees) at 12 knots (14 mph, 22 kph, 6 mps, Force 4)
Visibility: 10km or more
Cloud: broken at 2500 feet

18:00 CET to 20:00 CET
becoming:

Wind: variable light air at 3 knots (3 mph, 6 kph, 2 mps, Force 1)

03:00 CET to 05:00 CET
becoming:

Wind: moderate breeze from the South (180 degrees) at 12 knots (14 mph, 22 kph, 6 mps, Force 4)
Visibility: 4000 metres
Weather: light rain and drizzle
Weather: mist
Cloud: broken at 800 feet

05:00 CET to 10:00 CET
Occasional

Wind: moderate breeze from the South (180 degrees) at 15 knots (17 mph, 28 kph, 8 mps, Force 4) gusting to 25 knots (29 mph 46 kph, 13 mps)
Visibility: 1500 metres
Weather: sleet
Cloud: broken at 200 feet

Internet delivery of weather data is not secure or reliable enough for operational purposes.

NEVER RELY ON THE OUTPUT OF THIS SCRIPT TO MAKE DECISIONS ABOUT ANYTHING IN WHICH THE WEATHER FORECAST AND ITS INTERPRETATION COULD BE AN ISSUE OF SAFETY.

Andra intressanta METARs

Klicka på önskad rubrik nedan för att visa nuvarande väder för den platsen.

Avstånd från stationen: NO 27kmESGG - Göteborg (Landvetter)
Uppdaterad: 2023-02-02 09:20
 Vind från N
Vind: N 9 km/h
Temperatur: -5°C
Vindavkylning: -9°C
Daggpunkt: -6°C
Luftfuktighet: 93%
Barometer: 1012 hPa
Summering: Klart
Sikt: mer än 10 km
2023/02/02 08:20 ESGG 020820Z 36005KT CAVOK M05/M06 Q1012
Klart
Klart
  Visa detaljer för Göteborg (Landvetter)
Avstånd från stationen: N 28kmESGP - Göteborg (Säve)
Uppdaterad: 2023-02-02 09:20
 Vind från calm
Vind: Vindstilla
Temperatur: -4°C
Daggpunkt: -6°C
Luftfuktighet: 86%
Barometer: 1013 hPa
Summering: Klart
Sikt: mer än 10 km
2023/02/02 08:20 ESGP 020820Z 00000KT CAVOK M04/M06 Q1013
Klart
Klart
  Visa detaljer för Göteborg (Säve)
Avstånd från stationen: NO 419kmESSA - Stockholm (Arlanda)
Uppdaterad: 2023-02-02 08:50
 Vind från NV
Vind: NV 11 km/h
Temperatur: -5°C
Vindavkylning: -9°C
Daggpunkt: -7°C
Luftfuktighet: 86%
Barometer: 1008 hPa
Moln: Några få moln
Sikt: 10 km
Molninformation: Några få moln 366 m
2023/02/02 07:50 ESSA 020750Z 32006KT 9999 FEW012 M05/M07 Q1008 TEMPO BKN011
Några få moln
Några få moln
  Visa detaljer för Stockholm (Arlanda)
Avstånd från stationen: ONO 404kmESSB - Stockholm (Bromma)
Uppdaterad: 2023-02-02 08:50
 Vind från NV
Vind: NV 17 km/h
Temperatur: -3°C
Vindavkylning: -8°C
Daggpunkt: -5°C
Luftfuktighet: 86%
Barometer: 1008 hPa
Moln: Övervägande molnigt
Sikt: 10 km
Molninformation: Delvis molnigt 396 m
Övervägande molnigt 823 m
2023/02/02 07:50 ESSB 020750Z 32009KT 290V350 9999 SCT013 BKN027 M03/M05 Q1008
Övervägande molnigt
Övervägande molnigt
  Visa detaljer för Stockholm (Bromma)
Avstånd från stationen: ONO 323kmESKN - Stockholm (Skavsta)
Uppdaterad: 2023-02-02 08:50
 Vind från NNV
Vind: NNV 22 km/h
Temperatur: -3°C
Vindavkylning: -9°C
Daggpunkt: -6°C
Luftfuktighet: 80%
Barometer: 1009 hPa
Moln: Övervägande molnigt
Sikt: 10 km
Molninformation: Övervägande molnigt 274 m
2023/02/02 07:50 ESKN 020750Z 33012KT 9999 BKN009 M03/M06 Q1009
Övervägande molnigt
Övervägande molnigt
  Visa detaljer för Stockholm (Skavsta)
Avstånd från stationen: SSO 238kmESMS - Malmö flygplats (Sturup)
Uppdaterad: 2023-02-02 09:20
 Vind från NV
Vind: NV 20 km/h
Temperatur: 1°C
Vindavkylning: -4°C
Daggpunkt: -2°C
Luftfuktighet: 81%
Barometer: 1011 hPa
Moln: Några få moln
Sikt: 10 km
Molninformation: Några få moln 549 m
2023/02/02 08:20 ESMS 020820Z 32011KT 9999 FEW018 01/M02 Q1011
Några få moln
Några få moln
  Visa detaljer för Malmö flygplats (Sturup)
Avstånd från stationen: O 382kmESSV - Visby flygplats
Uppdaterad: 2023-02-02 08:50
 Vind från N
Vind: N 30 km/h
Temperatur: 0°C
Vindavkylning: -6°C
Daggpunkt: -2°C
Luftfuktighet: 87%
Barometer: 1006 hPa
Moln: Genommulet
Sikt: 10 km
Molninformation: Genommulet 366 m
2023/02/02 07:50 ESSV 020750Z 35016KT 9999 OVC012 00/M02 Q1006
Genommulet
Genommulet
  Visa detaljer för Visby flygplats
Avstånd från stationen: NNO 92kmESGT - Trollhättan
Uppdaterad: 2023-02-02 09:20
 Vind från VNV
Vind: VNV 9 km/h
Temperatur: -6°C
Vindavkylning: -11°C
Daggpunkt: -8°C
Luftfuktighet: 86%
Barometer: 1013 hPa
Summering: Klart
Sikt: mer än 10 km
2023/02/02 08:20 ESGT 020820Z 30005KT CAVOK M06/M08 Q1013
Klart
Klart
  Visa detaljer för Trollhättan
Avstånd från stationen: ONO 129kmESGJ - Jönköpings flygplats
Uppdaterad: 2023-02-02 09:20
 Vind från NNV
Vind: NNV 11 km/h
Temperatur: -3°C
Vindavkylning: -7°C
Daggpunkt: -4°C
Luftfuktighet: 93%
Barometer: 1010 hPa
Moln: Övervägande molnigt
Sikt: 10 km
Molninformation: Övervägande molnigt 335 m
2023/02/02 08:20 ESGJ 020820Z 33006KT 9999 BKN011 M03/M04 Q1010
Övervägande molnigt
Övervägande molnigt
  Visa detaljer för Jönköpings flygplats
Avstånd från stationen: NNO 229kmESOK - Karlstad
Uppdaterad: 2023-02-02 08:50
 Vind från NV
Vind: NV 13 km/h
Temperatur: -8°C
Vindavkylning: -13°C
Daggpunkt: -10°C
Luftfuktighet: 86%
Barometer: 1011 hPa
Summering: Klart
Sikt: mer än 10 km
2023/02/02 07:50 ESOK 020750Z 32007KT CAVOK M08/M10 Q1011
Klart
Klart
  Visa detaljer för Karlstad
Avstånd från stationen: N 643kmESNZ - Östersund (Frösön)
Uppdaterad: 2023-02-02 08:50
 Vind från SSV
Vind: SSV 6 km/h
Temperatur: -12°C
Daggpunkt: -12°C
Luftfuktighet: 100%
Barometer: 1008 hPa
Moln: Övervägande molnigt
Sikt: 10 km
Molninformation: Några få moln 335 m
Övervägande molnigt 914 m
2023/02/02 07:50 ESNZ 020750Z 20003KT 9999 FEW011 BKN030 M12/M12 Q1008
Övervägande molnigt
Övervägande molnigt
  Visa detaljer för Östersund (Frösön)
Avstånd från stationen: SSO 216kmEKCH - Köpenhamn (Kastrup)
Uppdaterad: 2023-02-02 09:20
 Vind från NNV
Vind: NNV 15 km/h
Temperatur: 1°C
Vindavkylning: -3°C
Daggpunkt: -3°C
Luftfuktighet: 75%
Barometer: 1013 hPa
Moln: Klart
Sikt: 10 km
2023/02/02 08:20 EKCH 020820Z AUTO 33008KT 9999 NCD 01/M03 Q1013 NOSIG
Klart
Klart
  Visa detaljer för Köpenhamn (Kastrup)
Avstånd från stationen: SV 263kmEKBI - Billund Airport
Uppdaterad: 2023-02-02 09:20
 Vind från calm
Vind: Vindstilla
Temperatur: -1°C
Daggpunkt: -1°C
Luftfuktighet: 100%
Barometer: 1015 hPa
Moln: Klart
Sikt: 10 km
2023/02/02 08:20 EKBI 020820Z AUTO 00000KT 9999 NCD M01/M01 Q1015
Klart
Klart
  Visa detaljer för Billund Airport
Avstånd från stationen: N 302kmENGM - Oslo (Gardermoen)
Uppdaterad: 2023-02-02 09:20
 Vind från NNO
Vind: NNO 7 km/h
Temperatur: -13°C
Vindavkylning: -18°C
Daggpunkt: -15°C
Luftfuktighet: 85%
Barometer: 1012 hPa
Summering: Klart
Sikt: mer än 10 km
2023/02/02 08:20 ENGM 020820Z 02004KT CAVOK M13/M15 Q1012 NOSIG
Klart
Klart
  Visa detaljer för Oslo (Gardermoen)
Avstånd från stationen: NO 540kmEFMA - Mariehamn / Åland
Uppdaterad: 2023-02-02 09:20
 Vind från NNV
Vind: NNV 9 km/h
Temperatur: -1°C
Vindavkylning: -4°C
Daggpunkt: -3°C
Luftfuktighet: 86%
Barometer: 1007 hPa
Moln: Övervägande molnigt
Sikt: 10 km
Molninformation: Några få moln 610 m
Övervägande molnigt 1494 m
2023/02/02 08:20 EFMA 020820Z 33005KT 9999 FEW020 BKN049 M01/M03 Q1007
Övervägande molnigt
Övervägande molnigt
  Visa detaljer för Mariehamn / Åland
Avstånd från stationen: S 558kmEDDT - Berlin (Tegel), Germany
Uppdaterad: 2020-11-09 07:50
Ej aktuell
 Vind från O
Vind: O 11 km/h
Temperatur: 6°C
Vindavkylning: 4°C
Daggpunkt: 5°C
Luftfuktighet: 93%
Barometer: 1027 hPa
Summering: Dimmigt
Moln: Genommulet
Sikt: 3 km
Molninformation: Genommulet 91 m
2020/11/09 06:50 EDDT 090650Z 09006KT 050V120 3000 BR OVC003 06/05 Q1027
Dimmigt, Genommulet
Dimmigt
Genommulet
  Visa detaljer för Berlin (Tegel), Germany
Avstånd från stationen: SV 737kmEHAM - Amsterdam (Schiphol)
Uppdaterad: 2023-02-02 08:55
 Vind från V
Vind: V 33 km/h
Temperatur: 8°C
Vindavkylning: 3°C
Daggpunkt: 6°C
Luftfuktighet: 87%
Barometer: 1022 hPa
Moln: Övervägande molnigt
Sikt: 10 km
Molninformation: Några få moln 549 m
Delvis molnigt 610 m
Övervägande molnigt 853 m
2023/02/02 07:55 EHAM 020755Z 28018KT 250V310 9999 FEW018 SCT020 BKN028 08/06 Q1022 NOSIG
Övervägande molnigt
Övervägande molnigt
  Visa detaljer för Amsterdam (Schiphol)
Avstånd från stationen: ONO 808kmEFHK - Helsingfors (Vantaa)
Uppdaterad: 2023-02-02 09:20
 Vind från NNV
Vind: NNV 11 km/h
Temperatur: -2°C
Vindavkylning: -6°C
Daggpunkt: -3°C
Luftfuktighet: 93%
Barometer: 1003 hPa
Moln: Några få moln
Sikt: 10 km
Molninformation: Några få moln 152 m
2023/02/02 08:20 EFHK 020820Z 34006KT 9999 FEW005 M02/M03 Q1003 TEMPO BKN004
Några få moln
Några få moln
  Visa detaljer för Helsingfors (Vantaa)
Avstånd från stationen: SSV 537kmEDDW - Bremen
Uppdaterad: 2023-02-02 09:20
 Vind från V
Vind: V 17 km/h
Temperatur: 5°C
Vindavkylning: 2°C
Daggpunkt: 3°C
Luftfuktighet: 87%
Barometer: 1018 hPa
Summering: Klart
Sikt: mer än 10 km
2023/02/02 08:20 EDDW 020820Z AUTO 28009KT CAVOK 05/03 Q1018 NOSIG
Klart
Klart
  Visa detaljer för Bremen
Avstånd från stationen: SSV 861kmEDDF - Frankfurt am Main
Uppdaterad: 2023-02-02 09:20
 Vind från VSV
Vind: VSV 30 km/h
Vindby: 52 km/h
Moln: Genommulet
Sikt: 10 km
Molninformation: Övervägande molnigt 732 m
Övervägande molnigt 884 m
Genommulet 1158 m
2023/02/02 08:20 EDDF 020820Z AUTO 24016G28KT 9999 BKN024 BKN029 OVC038 0
Genommulet
Genommulet
  Visa detaljer för Frankfurt am Main
Avstånd från stationen: SV 880kmEBBR - Bryssel international
Uppdaterad: 2023-02-02 08:50
 Vind från V
Vind: V 22 km/h
Temperatur: 7°C
Vindavkylning: 4°C
Daggpunkt: 5°C
Luftfuktighet: 87%
Barometer: 1025 hPa
Moln: Övervägande molnigt
Sikt: 10 km
Molninformation: Några få moln 518 m
Övervägande molnigt 853 m
2023/02/02 07:50 EBBR 020750Z 26012KT 9999 FEW017 BKN028 07/05 Q1025 NOSIG
Övervägande molnigt
Övervägande molnigt
  Visa detaljer för Bryssel international
Avstånd från stationen: SV 738kmEHAM - Amsterdam (Schiphol)
Uppdaterad: 2023-02-02 08:55
 Vind från V
Vind: V 33 km/h
Temperatur: 8°C
Vindavkylning: 3°C
Daggpunkt: 6°C
Luftfuktighet: 87%
Barometer: 1022 hPa
Moln: Övervägande molnigt
Sikt: 10 km
Molninformation: Några få moln 549 m
Delvis molnigt 610 m
Övervägande molnigt 853 m
2023/02/02 07:55 EHAM 020755Z 28018KT 250V310 9999 FEW018 SCT020 BKN028 08/06 Q1022 NOSIG
Övervägande molnigt
Övervägande molnigt
  Visa detaljer för Amsterdam (Schiphol)
Avstånd från stationen: SV 1044kmEGLL - London (Heathrow)
Uppdaterad: 2023-02-02 08:50
 Vind från SV
Vind: SV 17 km/h
Temperatur: 7°C
Vindavkylning: 4°C
Daggpunkt: 4°C
Luftfuktighet: 81%
Barometer: 1027 hPa
Moln: Övervägande molnigt
Sikt: 10 km
Molninformation: Övervägande molnigt 427 m
2023/02/02 07:50 EGLL 020750Z AUTO 23009KT 9999 BKN014 07/04 Q1027
Övervägande molnigt
Övervägande molnigt
  Visa detaljer för London (Heathrow)
Avstånd från stationen: SV 1132kmLFPG - Paris (Charles de Gaulle)
Uppdaterad: 2023-02-02 09:00
 Vind från SV
Vind: SV 19 km/h
Temperatur: 6°C
Vindavkylning: 3°C
Daggpunkt: 4°C
Luftfuktighet: 87%
Barometer: 1030 hPa
Moln: Genommulet
Sikt: 10 km
Molninformation: Genommulet 975 m
2023/02/02 08:00 LFPG 020800Z 23010KT 9999 OVC032 06/04 Q1030 NOSIG
Genommulet
Genommulet
  Visa detaljer för Paris (Charles de Gaulle)
Avstånd från stationen: SSV 1142kmLSZH - Zürich Airport
Uppdaterad: 2023-02-02 09:20
 Vind från V
Vind: V 13 km/h
Temperatur: 4°C
Vindavkylning: 1°C
Daggpunkt: 0°C
Luftfuktighet: 75%
Barometer: 1029 hPa
Moln: Övervägande molnigt
Sikt: 10 km
Molninformation: Några få moln 823 m
Övervägande molnigt 1676 m
2023/02/02 08:20 LSZH 020820Z 28007KT 230V300 9999 FEW027 BKN055 04/M00 Q1029 NOSIG
Övervägande molnigt
Övervägande molnigt
  Visa detaljer för Zürich Airport
Avstånd från stationen: S 1749kmLIRF - Rome Airport (Fiumicino - Leonardo da Vinci)
Uppdaterad: 2023-02-02 08:50
 Vind från ONO
Vind: ONO 7 km/h
Temperatur: 6°C
Vindavkylning: 4°C
Daggpunkt: 4°C
Luftfuktighet: 87%
Barometer: 1023 hPa
Moln: Delvis molnigt
Sikt: 10 km
Molninformation: Delvis molnigt 1067 m
2023/02/02 07:50 LIRF 020750Z 06004KT 9999 SCT035 06/04 Q1023 NOSIG
Delvis molnigt
Delvis molnigt
  Visa detaljer för Rome Airport (Fiumicino - Leonardo da Vinci)
Avstånd från stationen: SO 2679kmLTAI - Antalya
Uppdaterad: 2023-02-02 08:50
 Vind från NV
Vind: NV 31 km/h
Temperatur: 10°C
Vindavkylning: 7°C
Daggpunkt: -7°C
Luftfuktighet: 30%
Barometer: 1020 hPa
Summering: Klart
Sikt: mer än 10 km
2023/02/02 07:50 LTAI 020750Z 31017KT CAVOK 10/M07 Q1020 NOSIG
Klart
Klart
  Visa detaljer för Antalya
Avstånd från stationen: VSV 6074kmKJFK - New Your (JFK)
Uppdaterad: 2023-02-02 08:51
 Vind från N
Vind: N 9 km/h
Temperatur: -3°C
Vindavkylning: -7°C
Daggpunkt: -11°C
Luftfuktighet: 54%
Barometer: 1025.4 hPa
Moln: Övervägande molnigt
Sikt: 16 km
Molninformation: Övervägande molnigt 7620 m
2023/02/02 07:51 KJFK 020751Z 36005KT 10SM BKN250 M03/M11 A3028 RMK AO2 SLP254 T10281111
Övervägande molnigt
Övervägande molnigt
  Visa detaljer för New Your (JFK)
Avstånd från stationen: VSV 8848kmKLAX - Los Angeles International Airport
Uppdaterad: 2023-02-02 08:53
 Vind från O
Vind: O 9 km/h
Temperatur: 9°C
Vindavkylning: 7°C
Daggpunkt: 3°C
Luftfuktighet: 66%
Barometer: 1023.7 hPa
Moln: Klart
Sikt: 16 km
2023/02/02 07:53 KLAX 020753Z 09005KT 10SM CLR 09/03 A3023 RMK AO2 SLP234 T00890028 401830050 $
Klart
Klart
  Visa detaljer för Los Angeles International Airport
Avstånd från stationen: SO 4968kmOMDB - Dubai International Airport
Uppdaterad: 2023-02-02 09:00
 Vind från SSO
Vind: SSO 19 km/h
Temperatur: 25°C
Daggpunkt: 14°C
Luftfuktighet: 51%
Barometer: 1016 hPa
Summering: Klart
Sikt: mer än 10 km
2023/02/02 08:00 OMDB 020800Z 15010KT CAVOK 25/14 Q1016 NOSIG
Klart
Klart
  Visa detaljer för Dubai International Airport
Avstånd från stationen: OSO 8570kmRJTT - Tokyo International Airport
Uppdaterad: 2023-02-02 09:00
 Vind från NNV
Vind: NNV 22 km/h
Moln: Övervägande molnigt
Sikt: 10 km
Molninformation: Övervägande molnigt 1829 m
2023/02/02 08:00 RJTT 020800Z 33012KT 9999 BKN060 BKN/// 08/M07 Q1018 NOSIG
Övervägande molnigt
Övervägande molnigt
  Visa detaljer för Tokyo International Airport
Avstånd från stationen: OSO 7125kmZBAA - Peking (Beijing Capital)
Uppdaterad: 2023-02-02 09:00
 Vind från SSO
Vind: SSO 7 km/h
Temperatur: 1°C
Vindavkylning: -1°C
Daggpunkt: -21°C
Luftfuktighet: 18%
Barometer: 1029 hPa
Summering: Klart
Sikt: mer än 10 km
2023/02/02 08:00 ZBAA 020800Z 15002MPS 110V210 CAVOK 01/M21 Q1029 NOSIG
Klart
Klart
  Visa detaljer för Peking (Beijing Capital)
VÄDER KURIOSA -  ExtremesIn Wyndham, Australia, the temperature reached 90 degrees F for 333 days in 1946.